sensor_id;sensor_type;location;lat;lon;timestamp;pressure;altitude;pressure_sealevel;temperature;humidity
28167;BME280;15455;53.376;-6.262;2024-02-14T00:00:39;100251.44;;;6.64;100.00
28167;BME280;15455;53.376;-6.262;2024-02-14T00:03:26;100253.16;;;6.62;100.00
28167;BME280;15455;53.376;-6.262;2024-02-14T00:06:12;100240.16;;;6.58;100.00
28167;BME280;15455;53.376;-6.262;2024-02-14T00:08:58;100248.81;;;6.57;100.00
28167;BME280;15455;53.376;-6.262;2024-02-14T00:11:44;100241.88;;;6.53;100.00
28167;BME280;15455;53.376;-6.262;2024-02-14T00:14:29;100242.72;;;6.54;100.00
28167;BME280;15455;53.376;-6.262;2024-02-14T00:17:15;100235.78;;;6.50;100.00
28167;BME280;15455;53.376;-6.262;2024-02-14T00:20:01;100237.53;;;6.51;100.00
28167;BME280;15455;53.376;-6.262;2024-02-14T00:22:48;100232.34;;;6.51;100.00
28167;BME280;15455;53.376;-6.262;2024-02-14T00:25:33;100241.88;;;6.50;100.00
28167;BME280;15455;53.376;-6.262;2024-02-14T00:28:19;100230.59;;;6.50;100.00
28167;BME280;15455;53.376;-6.262;2024-02-14T00:31:05;100233.19;;;6.50;100.00
28167;BME280;15455;53.376;-6.262;2024-02-14T00:33:51;100221.13;;;6.50;100.00
28167;BME280;15455;53.376;-6.262;2024-02-14T00:36:37;100225.41;;;6.48;100.00
28167;BME280;15455;53.376;-6.262;2024-02-14T00:39:22;100220.22;;;6.47;100.00
28167;BME280;15455;53.376;-6.262;2024-02-14T00:42:08;100216.78;;;6.45;100.00
28167;BME280;15455;53.376;-6.262;2024-02-14T00:44:53;100222.78;;;6.39;100.00
28167;BME280;15455;53.376;-6.262;2024-02-14T00:47:39;100221.88;;;6.35;100.00
28167;BME280;15455;53.376;-6.262;2024-02-14T00:50:25;100216.69;;;6.31;100.00
28167;BME280;15455;53.376;-6.262;2024-02-14T00:53:10;100219.22;;;6.24;100.00
28167;BME280;15455;53.376;-6.262;2024-02-14T00:55:56;100226.97;;;6.17;100.00
28167;BME280;15455;53.376;-6.262;2024-02-14T00:58:42;100233.78;;;6.07;100.00
28167;BME280;15455;53.376;-6.262;2024-02-14T01:01:27;100233.78;;;6.02;100.00
28167;BME280;15455;53.376;-6.262;2024-02-14T01:04:13;100232.03;;;6.03;100.00
28167;BME280;15455;53.376;-6.262;2024-02-14T01:06:58;100225.13;;;6.05;100.00
28167;BME280;15455;53.376;-6.262;2024-02-14T01:09:44;100229.47;;;6.07;100.00
28167;BME280;15455;53.376;-6.262;2024-02-14T01:12:29;100220.00;;;6.10;100.00
28167;BME280;15455;53.376;-6.262;2024-02-14T01:15:15;100223.47;;;6.13;100.00
28167;BME280;15455;53.376;-6.262;2024-02-14T01:18:01;100217.44;;;6.14;100.00
28167;BME280;15455;53.376;-6.262;2024-02-14T01:20:46;100226.09;;;6.16;100.00
28167;BME280;15455;53.376;-6.262;2024-02-14T01:23:32;100226.91;;;6.12;100.00
28167;BME280;15455;53.376;-6.262;2024-02-14T01:26:17;100226.03;;;6.07;100.00
28167;BME280;15455;53.376;-6.262;2024-02-14T01:29:03;100227.72;;;6.06;100.00
28167;BME280;15455;53.376;-6.262;2024-02-14T01:31:51;100235.50;;;6.08;100.00
28167;BME280;15455;53.376;-6.262;2024-02-14T01:34:36;100236.41;;;6.12;100.00
28167;BME280;15455;53.376;-6.262;2024-02-14T01:37:22;100231.34;;;6.27;100.00
28167;BME280;15455;53.376;-6.262;2024-02-14T01:40:08;100231.41;;;6.38;100.00
28167;BME280;15455;53.376;-6.262;2024-02-14T01:42:54;100233.16;;;6.40;100.00
28167;BME280;15455;53.376;-6.262;2024-02-14T01:45:41;100231.44;;;6.42;100.00
28167;BME280;15455;53.376;-6.262;2024-02-14T01:48:27;100223.66;;;6.46;100.00
28167;BME280;15455;53.376;-6.262;2024-02-14T01:51:13;100228.88;;;6.47;100.00
28167;BME280;15455;53.376;-6.262;2024-02-14T01:54:03;100228.00;;;6.50;100.00
28167;BME280;15455;53.376;-6.262;2024-02-14T01:56:48;100220.31;;;6.60;100.00
28167;BME280;15455;53.376;-6.262;2024-02-14T01:59:34;100228.19;;;6.77;100.00
28167;BME280;15455;53.376;-6.262;2024-02-14T02:02:20;100237.75;;;6.95;100.00
28167;BME280;15455;53.376;-6.262;2024-02-14T02:05:06;100230.88;;;7.02;100.00
28167;BME280;15455;53.376;-6.262;2024-02-14T02:07:52;100239.50;;;7.03;100.00
28167;BME280;15455;53.376;-6.262;2024-02-14T02:10:39;100242.97;;;7.02;100.00
28167;BME280;15455;53.376;-6.262;2024-02-14T02:13:25;100240.38;;;7.02;100.00
28167;BME280;15455;53.376;-6.262;2024-02-14T02:16:11;100251.63;;;7.01;100.00
28167;BME280;15455;53.376;-6.262;2024-02-14T02:18:58;100239.50;;;6.95;100.00
28167;BME280;15455;53.376;-6.262;2024-02-14T02:21:44;100255.16;;;7.20;100.00
28167;BME280;15455;53.376;-6.262;2024-02-14T02:24:33;100250.88;;;7.36;100.00
28167;BME280;15455;53.376;-6.262;2024-02-14T02:27:18;100237.91;;;7.45;100.00
28167;BME280;15455;53.376;-6.262;2024-02-14T02:30:06;100243.09;;;7.46;100.00
28167;BME280;15455;53.376;-6.262;2024-02-14T02:32:51;100241.34;;;7.41;100.00
28167;BME280;15455;53.376;-6.262;2024-02-14T02:35:41;100234.41;;;7.24;100.00
28167;BME280;15455;53.376;-6.262;2024-02-14T02:38:27;100242.19;;;7.27;100.00
28167;BME280;15455;53.376;-6.262;2024-02-14T02:41:15;100235.28;;;7.29;100.00
28167;BME280;15455;53.376;-6.262;2024-02-14T02:44:01;100230.09;;;7.33;100.00
28167;BME280;15455;53.376;-6.262;2024-02-14T02:46:47;100233.56;;;7.35;100.00
28167;BME280;15455;53.376;-6.262;2024-02-14T02:49:32;100243.09;;;7.37;100.00
28167;BME280;15455;53.376;-6.262;2024-02-14T02:52:18;100237.91;;;7.39;100.00
28167;BME280;15455;53.376;-6.262;2024-02-14T02:55:03;100231.84;;;7.37;100.00
28167;BME280;15455;53.376;-6.262;2024-02-14T02:57:50;100241.38;;;7.44;100.00
28167;BME280;15455;53.376;-6.262;2024-02-14T03:00:37;100237.91;;;7.46;100.00
28167;BME280;15455;53.376;-6.262;2024-02-14T03:03:23;100234.44;;;7.57;100.00
28167;BME280;15455;53.376;-6.262;2024-02-14T03:06:13;100236.22;;;7.69;100.00
28167;BME280;15455;53.376;-6.262;2024-02-14T03:08:59;100235.34;;;7.82;100.00
28167;BME280;15455;53.376;-6.262;2024-02-14T03:11:48;100230.16;;;7.93;100.00
28167;BME280;15455;53.376;-6.262;2024-02-14T03:14:34;100229.31;;;8.03;100.00
28167;BME280;15455;53.376;-6.262;2024-02-14T03:17:21;100228.44;;;8.10;100.00
28167;BME280;15455;53.376;-6.262;2024-02-14T03:20:07;100230.16;;;8.10;100.00
28167;BME280;15455;53.376;-6.262;2024-02-14T03:23:02;100231.00;;;8.09;100.00
28167;BME280;15455;53.376;-6.262;2024-02-14T03:25:49;100241.41;;;8.18;100.00
28167;BME280;15455;53.376;-6.262;2024-02-14T03:28:37;100239.69;;;8.14;100.00
28167;BME280;15455;53.376;-6.262;2024-02-14T03:31:22;100231.03;;;8.15;100.00
28167;BME280;15455;53.376;-6.262;2024-02-14T03:34:08;100237.06;;;8.17;100.00
28167;BME280;15455;53.376;-6.262;2024-02-14T03:36:53;100233.63;;;8.18;100.00
28167;BME280;15455;53.376;-6.262;2024-02-14T03:39:39;100241.41;;;8.23;100.00
28167;BME280;15455;53.376;-6.262;2024-02-14T03:42:25;100247.47;;;8.23;100.00
28167;BME280;15455;53.376;-6.262;2024-02-14T03:45:11;100234.47;;;8.20;100.00
28167;BME280;15455;53.376;-6.262;2024-02-14T03:47:57;100239.69;;;8.18;100.00
28167;BME280;15455;53.376;-6.262;2024-02-14T03:50:43;100244.00;;;8.23;100.00
28167;BME280;15455;53.376;-6.262;2024-02-14T03:53:29;100241.41;;;8.24;100.00
28167;BME280;15455;53.376;-6.262;2024-02-14T03:56:14;100233.63;;;8.21;100.00
28167;BME280;15455;53.376;-6.262;2024-02-14T03:59:01;100231.91;;;8.08;100.00
28167;BME280;15455;53.376;-6.262;2024-02-14T04:01:48;100230.16;;;7.91;100.00
28167;BME280;15455;53.376;-6.262;2024-02-14T04:04:33;100231.03;;;7.75;100.00
28167;BME280;15455;53.376;-6.262;2024-02-14T04:07:20;100211.13;;;7.63;100.00
28167;BME280;15455;53.376;-6.262;2024-02-14T04:10:07;100219.72;;;7.50;100.00
28167;BME280;15455;53.376;-6.262;2024-02-14T04:12:53;100214.53;;;7.37;100.00
28167;BME280;15455;53.376;-6.262;2024-02-14T04:15:38;100203.25;;;7.26;100.00
28167;BME280;15455;53.376;-6.262;2024-02-14T04:18:24;100205.00;;;7.24;100.00
28167;BME280;15455;53.376;-6.262;2024-02-14T04:21:10;100191.97;;;7.15;100.00
28167;BME280;15455;53.376;-6.262;2024-02-14T04:23:56;100191.97;;;7.04;100.00
28167;BME280;15455;53.376;-6.262;2024-02-14T04:26:41;100172.03;;;6.95;100.00
28167;BME280;15455;53.376;-6.262;2024-02-14T04:29:27;100172.00;;;6.83;100.00
28167;BME280;15455;53.376;-6.262;2024-02-14T04:32:15;100183.19;;;6.74;100.00
28167;BME280;15455;53.376;-6.262;2024-02-14T04:35:01;100185.78;;;6.68;100.00
28167;BME280;15455;53.376;-6.262;2024-02-14T04:37:47;100188.34;;;6.63;100.00
28167;BME280;15455;53.376;-6.262;2024-02-14T04:40:34;100178.84;;;6.62;100.00
28167;BME280;15455;53.376;-6.262;2024-02-14T04:43:20;100186.63;;;6.64;100.00
28167;BME280;15455;53.376;-6.262;2024-02-14T04:46:05;100192.69;;;6.69;100.00
28167;BME280;15455;53.376;-6.262;2024-02-14T04:48:52;100204.84;;;6.77;100.00
28167;BME280;15455;53.376;-6.262;2024-02-14T04:51:39;100196.31;;;7.06;100.00
28167;BME280;15455;53.376;-6.262;2024-02-14T04:54:24;100205.88;;;7.40;100.00
28167;BME280;15455;53.376;-6.262;2024-02-14T04:57:12;100212.81;;;7.62;100.00
28167;BME280;15455;53.376;-6.262;2024-02-14T04:59:58;100210.25;;;7.75;100.00
28167;BME280;15455;53.376;-6.262;2024-02-14T05:02:43;100207.66;;;7.78;100.00
28167;BME280;15455;53.376;-6.262;2024-02-14T05:05:29;100212.84;;;7.84;100.00
28167;BME280;15455;53.376;-6.262;2024-02-14T05:08:14;100211.13;;;7.86;100.00
28167;BME280;15455;53.376;-6.262;2024-02-14T05:11:01;100214.56;;;7.93;100.00
28167;BME280;15455;53.376;-6.262;2024-02-14T05:13:46;100220.63;;;8.03;100.00
28167;BME280;15455;53.376;-6.262;2024-02-14T05:16:32;100218.91;;;8.09;100.00
28167;BME280;15455;53.376;-6.262;2024-02-14T05:19:18;100219.75;;;8.11;100.00
28167;BME280;15455;53.376;-6.262;2024-02-14T05:22:06;100228.41;;;8.21;100.00
28167;BME280;15455;53.376;-6.262;2024-02-14T05:24:52;100225.81;;;8.26;100.00
28167;BME280;15455;53.376;-6.262;2024-02-14T05:27:37;100224.09;;;8.26;100.00
28167;BME280;15455;53.376;-6.262;2024-02-14T05:30:23;100217.97;;;8.41;100.00
28167;BME280;15455;53.376;-6.262;2024-02-14T05:33:10;100222.31;;;8.56;100.00
28167;BME280;15455;53.376;-6.262;2024-02-14T05:35:56;100227.50;;;8.61;100.00
28167;BME280;15455;53.376;-6.262;2024-02-14T05:38:42;100229.22;;;8.66;100.00
28167;BME280;15455;53.376;-6.262;2024-02-14T05:41:29;100230.94;;;8.72;100.00
28167;BME280;15455;53.376;-6.262;2024-02-14T05:44:16;100231.78;;;8.76;100.00
28167;BME280;15455;53.376;-6.262;2024-02-14T05:47:01;100231.78;;;8.77;100.00
28167;BME280;15455;53.376;-6.262;2024-02-14T05:49:47;100228.31;;;8.75;100.00
28167;BME280;15455;53.376;-6.262;2024-02-14T05:52:32;100224.84;;;8.73;100.00
28167;BME280;15455;53.376;-6.262;2024-02-14T05:55:18;100231.81;;;8.66;100.00
28167;BME280;15455;53.376;-6.262;2024-02-14T05:58:04;100224.91;;;8.56;100.00
28167;BME280;15455;53.376;-6.262;2024-02-14T06:00:49;100218.88;;;8.48;100.00
28167;BME280;15455;53.376;-6.262;2024-02-14T06:03:35;100224.06;;;8.52;100.00
28167;BME280;15455;53.376;-6.262;2024-02-14T06:06:21;100222.31;;;8.51;100.00
28167;BME280;15455;53.376;-6.262;2024-02-14T06:09:06;100225.81;;;8.46;100.00
28167;BME280;15455;53.376;-6.262;2024-02-14T06:11:55;100225.78;;;8.54;100.00
28167;BME280;15455;53.376;-6.262;2024-02-14T06:14:41;100230.13;;;8.53;100.00
28167;BME280;15455;53.376;-6.262;2024-02-14T06:17:26;100225.81;;;8.46;100.00
28167;BME280;15455;53.376;-6.262;2024-02-14T06:20:12;100223.19;;;8.40;100.00
28167;BME280;15455;53.376;-6.262;2024-02-14T06:22:58;100235.31;;;8.38;100.00
28167;BME280;15455;53.376;-6.262;2024-02-14T06:25:50;100232.72;;;8.33;100.00
28167;BME280;15455;53.376;-6.262;2024-02-14T06:28:35;100237.06;;;8.34;100.00
28167;BME280;15455;53.376;-6.262;2024-02-14T06:31:22;100226.69;;;8.28;100.00
28167;BME280;15455;53.376;-6.262;2024-02-14T06:34:08;100222.34;;;8.21;100.00
28167;BME280;15455;53.376;-6.262;2024-02-14T06:36:54;100226.69;;;8.17;100.00
28167;BME280;15455;53.376;-6.262;2024-02-14T06:39:40;100221.47;;;8.17;100.00
28167;BME280;15455;53.376;-6.262;2024-02-14T06:42:25;100219.75;;;8.13;100.00
28167;BME280;15455;53.376;-6.262;2024-02-14T06:45:11;100216.28;;;8.12;100.00
28167;BME280;15455;53.376;-6.262;2024-02-14T06:47:57;100216.28;;;8.15;100.00
28167;BME280;15455;53.376;-6.262;2024-02-14T06:50:43;100218.03;;;8.10;100.00
28167;BME280;15455;53.376;-6.262;2024-02-14T06:53:28;100225.84;;;8.12;100.00
28167;BME280;15455;53.376;-6.262;2024-02-14T06:56:14;100225.81;;;8.20;100.00
28167;BME280;15455;53.376;-6.262;2024-02-14T06:59:00;100228.38;;;8.29;100.00
28167;BME280;15455;53.376;-6.262;2024-02-14T07:01:45;100235.34;;;8.39;100.00
28167;BME280;15455;53.376;-6.262;2024-02-14T07:04:31;100236.19;;;8.40;100.00
28167;BME280;15455;53.376;-6.262;2024-02-14T07:07:17;100226.66;;;8.39;100.00
28167;BME280;15455;53.376;-6.262;2024-02-14T07:10:02;100231.88;;;8.31;100.00
28167;BME280;15455;53.376;-6.262;2024-02-14T07:12:48;100228.41;;;8.23;100.00
28167;BME280;15455;53.376;-6.262;2024-02-14T07:15:34;100229.28;;;8.26;100.00
28167;BME280;15455;53.376;-6.262;2024-02-14T07:18:20;100237.06;;;8.35;100.00
28167;BME280;15455;53.376;-6.262;2024-02-14T07:21:06;100233.56;;;8.52;100.00
28167;BME280;15455;53.376;-6.262;2024-02-14T07:23:52;100231.84;;;8.60;100.00
28167;BME280;15455;53.376;-6.262;2024-02-14T07:26:39;100230.09;;;8.59;100.00
28167;BME280;15455;53.376;-6.262;2024-02-14T07:29:26;100228.38;;;8.63;100.00
28167;BME280;15455;53.376;-6.262;2024-02-14T07:32:12;100234.41;;;8.65;100.00
28167;BME280;15455;53.376;-6.262;2024-02-14T07:34:58;100225.78;;;8.60;100.00
28167;BME280;15455;53.376;-6.262;2024-02-14T07:37:43;100236.19;;;8.54;100.00
28167;BME280;15455;53.376;-6.262;2024-02-14T07:40:29;100235.34;;;8.48;100.00
28167;BME280;15455;53.376;-6.262;2024-02-14T07:43:16;100244.88;;;8.45;100.00
28167;BME280;15455;53.376;-6.262;2024-02-14T07:46:01;100247.47;;;8.37;100.00
28167;BME280;15455;53.376;-6.262;2024-02-14T07:48:48;100254.41;;;8.37;100.00
28167;BME280;15455;53.376;-6.262;2024-02-14T07:51:34;100246.59;;;8.38;100.00
28167;BME280;15455;53.376;-6.262;2024-02-14T07:54:22;100246.59;;;8.37;100.00
28167;BME280;15455;53.376;-6.262;2024-02-14T07:57:07;100249.22;;;8.33;100.00
28167;BME280;15455;53.376;-6.262;2024-02-14T07:59:53;100242.28;;;8.32;100.00
28167;BME280;15455;53.376;-6.262;2024-02-14T08:02:39;100250.06;;;8.29;100.00
28167;BME280;15455;53.376;-6.262;2024-02-14T08:05:24;100248.34;;;8.25;100.00
28167;BME280;15455;53.376;-6.262;2024-02-14T08:08:10;100246.59;;;8.21;100.00
28167;BME280;15455;53.376;-6.262;2024-02-14T08:10:56;100254.41;;;8.18;100.00
28167;BME280;15455;53.376;-6.262;2024-02-14T08:13:41;100254.41;;;8.15;100.00
28167;BME280;15455;53.376;-6.262;2024-02-14T08:16:27;100260.47;;;8.23;100.00
28167;BME280;15455;53.376;-6.262;2024-02-14T08:19:13;100264.78;;;8.26;100.00
28167;BME280;15455;53.376;-6.262;2024-02-14T08:21:59;100279.53;;;8.28;100.00
28167;BME280;15455;53.376;-6.262;2024-02-14T08:24:45;100275.22;;;8.33;100.00
28167;BME280;15455;53.376;-6.262;2024-02-14T08:27:31;100288.19;;;8.38;100.00
28167;BME280;15455;53.376;-6.262;2024-02-14T08:30:17;100281.28;;;8.48;100.00
28167;BME280;15455;53.376;-6.262;2024-02-14T08:33:02;100285.59;;;8.61;100.00
28167;BME280;15455;53.376;-6.262;2024-02-14T08:35:48;100283.84;;;8.71;100.00
28167;BME280;15455;53.376;-6.262;2024-02-14T08:38:34;100290.75;;;8.75;100.00
28167;BME280;15455;53.376;-6.262;2024-02-14T08:41:23;100285.56;;;8.75;100.00
28167;BME280;15455;53.376;-6.262;2024-02-14T08:44:08;100291.63;;;8.82;100.00
28167;BME280;15455;53.376;-6.262;2024-02-14T08:46:54;100294.19;;;8.93;100.00
28167;BME280;15455;53.376;-6.262;2024-02-14T08:49:40;100282.88;;;8.97;100.00
28167;BME280;15455;53.376;-6.262;2024-02-14T08:52:27;100275.94;;;8.99;100.00
28167;BME280;15455;53.376;-6.262;2024-02-14T08:55:13;100279.41;;;9.01;100.00
28167;BME280;15455;53.376;-6.262;2024-02-14T08:58:04;100287.22;;;9.07;100.00
28167;BME280;15455;53.376;-6.262;2024-02-14T09:00:49;100305.38;;;9.16;100.00
28167;BME280;15455;53.376;-6.262;2024-02-14T09:03:49;100314.84;;;9.41;100.00
28167;BME280;15455;53.376;-6.262;2024-02-14T09:06:36;100312.13;;;9.57;100.00
28167;BME280;15455;53.376;-6.262;2024-02-14T09:09:22;100318.16;;;9.73;100.00
28167;BME280;15455;53.376;-6.262;2024-02-14T09:12:08;100326.72;;;9.91;100.00
28167;BME280;15455;53.376;-6.262;2024-02-14T09:14:54;100322.28;;;10.01;100.00
28167;BME280;15455;53.376;-6.262;2024-02-14T09:17:39;100334.41;;;10.13;100.00
28167;BME280;15455;53.376;-6.262;2024-02-14T09:20:26;100334.34;;;10.17;100.00
28167;BME280;15455;53.376;-6.262;2024-02-14T09:23:13;100329.94;;;10.24;100.00
28167;BME280;15455;53.376;-6.262;2024-02-14T09:26:06;100329.91;;;10.30;100.00
28167;BME280;15455;53.376;-6.262;2024-02-14T09:28:52;100335.06;;;10.39;100.00
28167;BME280;15455;53.376;-6.262;2024-02-14T09:31:38;100332.41;;;10.46;100.00
28167;BME280;15455;53.376;-6.262;2024-02-14T09:34:24;100321.09;;;10.47;100.00
28167;BME280;15455;53.376;-6.262;2024-02-14T09:37:11;100330.69;;;10.46;100.00
28167;BME280;15455;53.376;-6.262;2024-02-14T09:39:56;100335.91;;;10.45;100.00
28167;BME280;15455;53.376;-6.262;2024-02-14T09:42:54;100335.91;;;10.45;100.00
28167;BME280;15455;53.376;-6.262;2024-02-14T09:45:43;100334.16;;;10.45;100.00
28167;BME280;15455;53.376;-6.262;2024-02-14T09:48:30;100335.84;;;10.51;100.00
28167;BME280;15455;53.376;-6.262;2024-02-14T09:51:16;100334.06;;;10.56;100.00
28167;BME280;15455;53.376;-6.262;2024-02-14T09:54:02;100334.00;;;10.62;100.00
28167;BME280;15455;53.376;-6.262;2024-02-14T09:56:52;100339.16;;;10.68;100.00
28167;BME280;15455;53.376;-6.262;2024-02-14T09:59:39;100336.53;;;10.70;100.00
28167;BME280;15455;53.376;-6.262;2024-02-14T10:02:25;100339.16;;;10.70;100.00
28167;BME280;15455;53.376;-6.262;2024-02-14T10:05:11;100342.66;;;10.67;100.00
28167;BME280;15455;53.376;-6.262;2024-02-14T10:07:57;100345.25;;;10.70;100.00
28167;BME280;15455;53.376;-6.262;2024-02-14T10:10:44;100354.78;;;10.73;100.00
28167;BME280;15455;53.376;-6.262;2024-02-14T10:13:33;100348.66;;;10.77;100.00
28167;BME280;15455;53.376;-6.262;2024-02-14T10:16:20;100348.59;;;10.82;100.00
28167;BME280;15455;53.376;-6.262;2024-02-14T10:19:19;100337.22;;;10.92;100.00
28167;BME280;15455;53.376;-6.262;2024-02-14T10:22:05;100337.13;;;10.98;100.00
28167;BME280;15455;53.376;-6.262;2024-02-14T10:24:51;100339.69;;;11.03;100.00
28167;BME280;15455;53.376;-6.262;2024-02-14T10:27:38;100336.16;;;11.07;100.00
28167;BME280;15455;53.376;-6.262;2024-02-14T10:30:24;100340.44;;;11.14;100.00
28167;BME280;15455;53.376;-6.262;2024-02-14T10:33:10;100339.47;;;11.23;100.00
28167;BME280;15455;53.376;-6.262;2024-02-14T10:36:09;100355.94;;;11.31;100.00
28167;BME280;15455;53.376;-6.262;2024-02-14T10:38:58;100348.84;;;11.38;100.00
28167;BME280;15455;53.376;-6.262;2024-02-14T10:41:43;100349.63;;;11.46;100.00
28167;BME280;15455;53.376;-6.262;2024-02-14T10:44:29;100352.13;;;11.55;100.00
28167;BME280;15455;53.376;-6.262;2024-02-14T10:47:19;100352.88;;;11.65;100.00
28167;BME280;15455;53.376;-6.262;2024-02-14T10:50:06;100346.69;;;11.71;100.00
28167;BME280;15455;53.376;-6.262;2024-02-14T10:52:57;100337.06;;;11.76;100.00
28167;BME280;15455;53.376;-6.262;2024-02-14T10:55:46;100330.81;;;11.86;100.00
28167;BME280;15455;53.376;-6.262;2024-02-14T10:58:34;100331.56;;;11.96;100.00
28167;BME280;15455;53.376;-6.262;2024-02-14T11:01:20;100326.16;;;12.07;100.00
28167;BME280;15455;53.376;-6.262;2024-02-14T11:04:08;100319.00;;;12.18;100.00
28167;BME280;15455;53.376;-6.262;2024-02-14T11:06:54;100312.75;;;12.27;100.00
28167;BME280;15455;53.376;-6.262;2024-02-14T11:09:42;100316.13;;;12.35;100.00
28167;BME280;15455;53.376;-6.262;2024-02-14T11:12:35;100319.47;;;12.43;100.00
28167;BME280;15455;53.376;-6.262;2024-02-14T11:15:23;100309.88;;;12.44;100.00
28167;BME280;15455;53.376;-6.262;2024-02-14T11:18:11;100298.44;;;12.49;100.00
28167;BME280;15455;53.376;-6.262;2024-02-14T11:20:57;100298.44;;;12.49;100.00
28167;BME280;15455;53.376;-6.262;2024-02-14T11:23:54;100283.53;;;12.53;100.00
28167;BME280;15455;53.376;-6.262;2024-02-14T11:26:51;100294.75;;;12.60;100.00
28167;BME280;15455;53.376;-6.262;2024-02-14T11:29:51;100290.19;;;12.69;100.00
28167;BME280;15455;53.376;-6.262;2024-02-14T11:32:37;100292.72;;;12.76;100.00
28167;BME280;15455;53.376;-6.262;2024-02-14T11:35:27;100297.84;;;12.82;100.00
28167;BME280;15455;53.376;-6.262;2024-02-14T11:38:13;100288.13;;;12.89;100.00
28167;BME280;15455;53.376;-6.262;2024-02-14T11:40:59;100294.13;;;12.92;100.00
28167;BME280;15455;53.376;-6.262;2024-02-14T11:43:51;100287.91;;;12.98;100.00
28167;BME280;15455;53.376;-6.262;2024-02-14T11:46:37;100290.59;;;12.95;100.00
28167;BME280;15455;53.376;-6.262;2024-02-14T11:49:23;100279.25;;;12.96;100.00
28167;BME280;15455;53.376;-6.262;2024-02-14T11:52:10;100284.44;;;12.97;100.00
28167;BME280;15455;53.376;-6.262;2024-02-14T11:54:56;100281.00;;;12.94;100.00
28167;BME280;15455;53.376;-6.262;2024-02-14T11:57:44;100294.97;;;12.96;100.00
28167;BME280;15455;53.376;-6.262;2024-02-14T12:00:33;100294.03;;;12.97;100.00
28167;BME280;15455;53.376;-6.262;2024-02-14T12:03:25;100301.16;;;12.92;100.00
28167;BME280;15455;53.376;-6.262;2024-02-14T12:06:14;100308.38;;;12.79;100.00
28167;BME280;15455;53.376;-6.262;2024-02-14T12:09:01;100321.63;;;12.71;100.00
28167;BME280;15455;53.376;-6.262;2024-02-14T12:11:50;100322.59;;;12.65;100.00
28167;BME280;15455;53.376;-6.262;2024-02-14T12:14:36;100320.00;;;12.64;100.00
28167;BME280;15455;53.376;-6.262;2024-02-14T12:17:22;100333.78;;;12.72;100.00
28167;BME280;15455;53.376;-6.262;2024-02-14T12:20:09;100341.50;;;12.81;100.00
28167;BME280;15455;53.376;-6.262;2024-02-14T12:22:59;100339.63;;;12.88;100.00
28167;BME280;15455;53.376;-6.262;2024-02-14T12:25:46;100338.66;;;12.92;100.00
28167;BME280;15455;53.376;-6.262;2024-02-14T12:28:34;100332.53;;;12.93;100.00
28167;BME280;15455;53.376;-6.262;2024-02-14T12:31:23;100315.94;;;12.94;100.00
28167;BME280;15455;53.376;-6.262;2024-02-14T12:34:10;100313.28;;;12.96;100.00
28167;BME280;15455;53.376;-6.262;2024-02-14T12:36:57;100305.50;;;12.93;100.00
28167;BME280;15455;53.376;-6.262;2024-02-14T12:39:42;100298.50;;;12.93;100.00
28167;BME280;15455;53.376;-6.262;2024-02-14T12:42:28;100298.56;;;12.90;100.00
28167;BME280;15455;53.376;-6.262;2024-02-14T12:45:13;100299.41;;;12.91;100.00
28167;BME280;15455;53.376;-6.262;2024-02-14T12:48:01;100300.34;;;12.86;100.00
28167;BME280;15455;53.376;-6.262;2024-02-14T12:50:46;100291.63;;;12.88;100.00
28167;BME280;15455;53.376;-6.262;2024-02-14T12:53:34;100297.75;;;12.86;100.00
28167;BME280;15455;53.376;-6.262;2024-02-14T12:56:20;100298.66;;;12.85;100.00
28167;BME280;15455;53.376;-6.262;2024-02-14T12:59:05;100309.06;;;12.89;100.00
28167;BME280;15455;53.376;-6.262;2024-02-14T13:01:51;100308.97;;;12.93;100.00
28167;BME280;15455;53.376;-6.262;2024-02-14T13:04:37;100292.34;;;12.96;100.00
28167;BME280;15455;53.376;-6.262;2024-02-14T13:07:22;100301.88;;;12.98;100.00
28167;BME280;15455;53.376;-6.262;2024-02-14T13:10:08;100305.41;;;12.97;100.00
28167;BME280;15455;53.376;-6.262;2024-02-14T13:12:57;100301.97;;;12.94;100.00
28167;BME280;15455;53.376;-6.262;2024-02-14T13:15:45;100303.63;;;12.98;100.00
28167;BME280;15455;53.376;-6.262;2024-02-14T13:18:30;100307.06;;;13.01;100.00
28167;BME280;15455;53.376;-6.262;2024-02-14T13:21:17;100302.69;;;13.02;100.00
28167;BME280;15455;53.376;-6.262;2024-02-14T13:24:03;100300.03;;;13.03;100.00
28167;BME280;15455;53.376;-6.262;2024-02-14T13:26:49;100306.22;;;12.99;100.00
28167;BME280;15455;53.376;-6.262;2024-02-14T13:29:35;100300.19;;;12.96;100.00
28167;BME280;15455;53.376;-6.262;2024-02-14T13:32:20;100304.59;;;12.94;100.00
28167;BME280;15455;53.376;-6.262;2024-02-14T13:35:06;100297.63;;;12.91;100.00
28167;BME280;15455;53.376;-6.262;2024-02-14T13:37:52;100302.88;;;12.91;100.00
28167;BME280;15455;53.376;-6.262;2024-02-14T13:40:38;100300.34;;;12.86;100.00
28167;BME280;15455;53.376;-6.262;2024-02-14T13:43:24;100306.50;;;12.84;100.00
28167;BME280;15455;53.376;-6.262;2024-02-14T13:46:10;100303.91;;;12.82;100.00
28167;BME280;15455;53.376;-6.262;2024-02-14T13:48:56;100307.44;;;12.83;100.00
28167;BME280;15455;53.376;-6.262;2024-02-14T13:51:42;100303.03;;;12.83;100.00
28167;BME280;15455;53.376;-6.262;2024-02-14T13:54:27;100296.88;;;12.86;100.00
28167;BME280;15455;53.376;-6.262;2024-02-14T13:57:13;100286.25;;;12.94;100.00
28167;BME280;15455;53.376;-6.262;2024-02-14T13:59:59;100280.91;;;13.00;100.00
28167;BME280;15455;53.376;-6.262;2024-02-14T14:02:45;100274.63;;;13.09;100.00
28167;BME280;15455;53.376;-6.262;2024-02-14T14:05:31;100278.88;;;13.14;100.00
28167;BME280;15455;53.376;-6.262;2024-02-14T14:08:17;100275.19;;;13.21;100.00
28167;BME280;15455;53.376;-6.262;2024-02-14T14:11:03;100276.88;;;13.26;100.00
28167;BME280;15455;53.376;-6.262;2024-02-14T14:13:49;100279.41;;;13.29;100.00